sensor_id;sensor_type;location;lat;lon;timestamp;P1;durP1;ratioP1;P2;durP2;ratioP2
12145;SDS011;6136;47.032;15.398;2023-07-24T00:00:39;6.88;;;5.10;;
12145;SDS011;6136;47.032;15.398;2023-07-24T00:03:07;7.18;;;5.90;;
12145;SDS011;6136;47.032;15.398;2023-07-24T00:05:36;9.40;;;6.07;;
12145;SDS011;6136;47.032;15.398;2023-07-24T00:08:04;6.78;;;5.20;;
12145;SDS011;6136;47.032;15.398;2023-07-24T00:10:33;8.90;;;5.47;;
12145;SDS011;6136;47.032;15.398;2023-07-24T00:13:01;8.27;;;6.13;;
12145;SDS011;6136;47.032;15.398;2023-07-24T00:15:30;10.57;;;6.63;;
12145;SDS011;6136;47.032;15.398;2023-07-24T00:17:59;7.50;;;5.45;;
12145;SDS011;6136;47.032;15.398;2023-07-24T00:20:27;7.40;;;5.68;;
12145;SDS011;6136;47.032;15.398;2023-07-24T00:22:55;6.93;;;6.18;;
12145;SDS011;6136;47.032;15.398;2023-07-24T00:25:24;6.93;;;5.53;;
12145;SDS011;6136;47.032;15.398;2023-07-24T00:27:53;7.82;;;5.78;;
12145;SDS011;6136;47.032;15.398;2023-07-24T00:30:21;8.52;;;5.97;;
12145;SDS011;6136;47.032;15.398;2023-07-24T00:32:50;9.30;;;5.78;;
12145;SDS011;6136;47.032;15.398;2023-07-24T00:35:19;7.18;;;5.15;;
12145;SDS011;6136;47.032;15.398;2023-07-24T00:37:49;7.28;;;5.93;;
12145;SDS011;6136;47.032;15.398;2023-07-24T00:40:17;7.72;;;5.82;;
12145;SDS011;6136;47.032;15.398;2023-07-24T00:42:46;10.43;;;6.05;;
12145;SDS011;6136;47.032;15.398;2023-07-24T00:45:15;9.82;;;5.55;;
12145;SDS011;6136;47.032;15.398;2023-07-24T00:47:43;8.93;;;6.07;;
12145;SDS011;6136;47.032;15.398;2023-07-24T00:50:12;7.30;;;5.57;;
12145;SDS011;6136;47.032;15.398;2023-07-24T00:52:42;8.43;;;6.07;;
12145;SDS011;6136;47.032;15.398;2023-07-24T00:55:11;7.45;;;5.75;;
12145;SDS011;6136;47.032;15.398;2023-07-24T00:57:43;10.50;;;6.03;;
12145;SDS011;6136;47.032;15.398;2023-07-24T01:00:12;8.98;;;5.70;;
12145;SDS011;6136;47.032;15.398;2023-07-24T01:02:40;10.43;;;6.22;;
12145;SDS011;6136;47.032;15.398;2023-07-24T01:05:10;9.93;;;6.15;;
12145;SDS011;6136;47.032;15.398;2023-07-24T01:07:42;10.05;;;6.97;;
12145;SDS011;6136;47.032;15.398;2023-07-24T01:10:11;10.55;;;6.78;;
12145;SDS011;6136;47.032;15.398;2023-07-24T01:12:40;8.43;;;6.38;;
12145;SDS011;6136;47.032;15.398;2023-07-24T01:15:14;8.20;;;6.20;;
12145;SDS011;6136;47.032;15.398;2023-07-24T01:17:48;7.90;;;5.53;;
12145;SDS011;6136;47.032;15.398;2023-07-24T01:20:20;7.95;;;6.07;;
12145;SDS011;6136;47.032;15.398;2023-07-24T01:22:57;6.85;;;5.43;;
12145;SDS011;6136;47.032;15.398;2023-07-24T01:25:45;7.60;;;5.90;;
12145;SDS011;6136;47.032;15.398;2023-07-24T01:28:21;8.68;;;5.50;;
12145;SDS011;6136;47.032;15.398;2023-07-24T01:30:49;11.18;;;6.63;;
12145;SDS011;6136;47.032;15.398;2023-07-24T01:33:18;11.35;;;6.35;;
12145;SDS011;6136;47.032;15.398;2023-07-24T01:35:47;8.40;;;6.15;;
12145;SDS011;6136;47.032;15.398;2023-07-24T01:38:18;9.40;;;6.60;;
12145;SDS011;6136;47.032;15.398;2023-07-24T01:40:47;8.68;;;5.82;;
12145;SDS011;6136;47.032;15.398;2023-07-24T01:43:16;8.95;;;6.18;;
12145;SDS011;6136;47.032;15.398;2023-07-24T01:45:44;7.22;;;5.45;;
12145;SDS011;6136;47.032;15.398;2023-07-24T01:48:12;7.78;;;5.68;;
12145;SDS011;6136;47.032;15.398;2023-07-24T01:50:40;8.55;;;6.00;;
12145;SDS011;6136;47.032;15.398;2023-07-24T01:53:09;8.15;;;6.70;;
12145;SDS011;6136;47.032;15.398;2023-07-24T01:55:37;8.13;;;5.70;;
12145;SDS011;6136;47.032;15.398;2023-07-24T01:58:07;7.22;;;6.05;;
12145;SDS011;6136;47.032;15.398;2023-07-24T02:00:35;9.30;;;6.35;;
12145;SDS011;6136;47.032;15.398;2023-07-24T02:03:03;7.63;;;5.85;;
12145;SDS011;6136;47.032;15.398;2023-07-24T02:05:32;9.60;;;6.53;;
12145;SDS011;6136;47.032;15.398;2023-07-24T02:08:01;7.55;;;6.03;;
12145;SDS011;6136;47.032;15.398;2023-07-24T02:10:29;10.02;;;7.13;;
12145;SDS011;6136;47.032;15.398;2023-07-24T02:12:57;8.65;;;6.13;;
12145;SDS011;6136;47.032;15.398;2023-07-24T02:15:27;10.38;;;6.07;;
12145;SDS011;6136;47.032;15.398;2023-07-24T02:17:55;8.38;;;6.75;;
12145;SDS011;6136;47.032;15.398;2023-07-24T02:20:23;10.00;;;6.82;;
12145;SDS011;6136;47.032;15.398;2023-07-24T02:22:51;8.38;;;6.28;;
12145;SDS011;6136;47.032;15.398;2023-07-24T02:25:19;12.57;;;6.78;;
12145;SDS011;6136;47.032;15.398;2023-07-24T02:27:47;8.68;;;6.53;;
12145;SDS011;6136;47.032;15.398;2023-07-24T02:30:16;9.55;;;7.22;;
12145;SDS011;6136;47.032;15.398;2023-07-24T02:32:45;9.65;;;7.07;;
12145;SDS011;6136;47.032;15.398;2023-07-24T02:35:14;12.15;;;7.93;;
12145;SDS011;6136;47.032;15.398;2023-07-24T02:37:45;11.10;;;7.55;;
12145;SDS011;6136;47.032;15.398;2023-07-24T02:40:13;9.68;;;7.72;;
12145;SDS011;6136;47.032;15.398;2023-07-24T02:42:41;8.02;;;6.75;;
12145;SDS011;6136;47.032;15.398;2023-07-24T02:45:11;10.13;;;7.07;;
12145;SDS011;6136;47.032;15.398;2023-07-24T02:47:39;10.55;;;7.53;;
12145;SDS011;6136;47.032;15.398;2023-07-24T02:50:10;10.57;;;7.40;;
12145;SDS011;6136;47.032;15.398;2023-07-24T02:52:38;10.07;;;7.22;;
12145;SDS011;6136;47.032;15.398;2023-07-24T02:55:07;10.65;;;6.65;;
12145;SDS011;6136;47.032;15.398;2023-07-24T02:57:35;9.07;;;6.65;;
12145;SDS011;6136;47.032;15.398;2023-07-24T03:00:04;9.68;;;6.80;;
12145;SDS011;6136;47.032;15.398;2023-07-24T03:02:33;11.38;;;7.32;;
12145;SDS011;6136;47.032;15.398;2023-07-24T03:05:01;9.80;;;7.07;;
12145;SDS011;6136;47.032;15.398;2023-07-24T03:07:31;13.57;;;7.60;;
12145;SDS011;6136;47.032;15.398;2023-07-24T03:10:00;10.88;;;7.57;;
12145;SDS011;6136;47.032;15.398;2023-07-24T03:12:29;9.93;;;6.45;;
12145;SDS011;6136;47.032;15.398;2023-07-24T03:14:57;10.77;;;7.25;;
12145;SDS011;6136;47.032;15.398;2023-07-24T03:17:25;12.00;;;7.40;;
12145;SDS011;6136;47.032;15.398;2023-07-24T03:19:54;8.90;;;7.47;;
12145;SDS011;6136;47.032;15.398;2023-07-24T03:22:22;10.85;;;7.55;;
12145;SDS011;6136;47.032;15.398;2023-07-24T03:24:52;13.32;;;8.27;;
12145;SDS011;6136;47.032;15.398;2023-07-24T03:27:20;12.38;;;8.02;;
12145;SDS011;6136;47.032;15.398;2023-07-24T03:29:48;12.88;;;8.90;;
12145;SDS011;6136;47.032;15.398;2023-07-24T03:32:16;13.40;;;8.50;;
12145;SDS011;6136;47.032;15.398;2023-07-24T03:34:44;11.20;;;8.63;;
12145;SDS011;6136;47.032;15.398;2023-07-24T03:37:12;9.98;;;7.43;;
12145;SDS011;6136;47.032;15.398;2023-07-24T03:39:40;11.15;;;7.65;;
12145;SDS011;6136;47.032;15.398;2023-07-24T03:42:10;10.77;;;8.02;;
12145;SDS011;6136;47.032;15.398;2023-07-24T03:44:39;14.57;;;8.35;;
12145;SDS011;6136;47.032;15.398;2023-07-24T03:47:08;10.52;;;7.47;;
12145;SDS011;6136;47.032;15.398;2023-07-24T03:49:36;11.85;;;7.18;;
12145;SDS011;6136;47.032;15.398;2023-07-24T03:52:04;10.32;;;7.28;;
12145;SDS011;6136;47.032;15.398;2023-07-24T03:54:33;9.63;;;7.80;;
12145;SDS011;6136;47.032;15.398;2023-07-24T03:57:01;11.30;;;7.28;;
12145;SDS011;6136;47.032;15.398;2023-07-24T03:59:30;9.25;;;7.15;;
12145;SDS011;6136;47.032;15.398;2023-07-24T04:01:59;10.20;;;7.88;;
12145;SDS011;6136;47.032;15.398;2023-07-24T04:04:27;14.25;;;9.48;;
12145;SDS011;6136;47.032;15.398;2023-07-24T04:06:55;15.32;;;8.90;;
12145;SDS011;6136;47.032;15.398;2023-07-24T04:09:23;10.65;;;8.30;;
12145;SDS011;6136;47.032;15.398;2023-07-24T04:11:51;17.08;;;7.88;;
12145;SDS011;6136;47.032;15.398;2023-07-24T04:14:20;8.27;;;7.15;;
12145;SDS011;6136;47.032;15.398;2023-07-24T04:16:49;10.18;;;7.50;;
12145;SDS011;6136;47.032;15.398;2023-07-24T04:19:17;10.63;;;7.40;;
12145;SDS011;6136;47.032;15.398;2023-07-24T04:21:45;10.43;;;7.20;;
12145;SDS011;6136;47.032;15.398;2023-07-24T04:24:13;12.52;;;7.57;;
12145;SDS011;6136;47.032;15.398;2023-07-24T04:26:41;11.95;;;7.10;;
12145;SDS011;6136;47.032;15.398;2023-07-24T04:29:10;11.23;;;7.20;;
12145;SDS011;6136;47.032;15.398;2023-07-24T04:31:38;11.48;;;7.05;;
12145;SDS011;6136;47.032;15.398;2023-07-24T04:34:07;11.02;;;7.13;;
12145;SDS011;6136;47.032;15.398;2023-07-24T04:36:35;9.30;;;6.72;;
12145;SDS011;6136;47.032;15.398;2023-07-24T04:39:03;11.00;;;7.95;;
12145;SDS011;6136;47.032;15.398;2023-07-24T04:41:31;10.00;;;7.68;;
12145;SDS011;6136;47.032;15.398;2023-07-24T04:43:59;11.45;;;7.75;;
12145;SDS011;6136;47.032;15.398;2023-07-24T04:46:28;10.50;;;7.95;;
12145;SDS011;6136;47.032;15.398;2023-07-24T04:48:56;15.23;;;8.93;;
12145;SDS011;6136;47.032;15.398;2023-07-24T04:51:26;13.40;;;8.10;;
12145;SDS011;6136;47.032;15.398;2023-07-24T04:53:54;9.80;;;7.95;;
12145;SDS011;6136;47.032;15.398;2023-07-24T04:56:22;10.18;;;7.80;;
12145;SDS011;6136;47.032;15.398;2023-07-24T04:58:50;9.95;;;7.90;;
12145;SDS011;6136;47.032;15.398;2023-07-24T05:01:18;9.85;;;7.72;;
12145;SDS011;6136;47.032;15.398;2023-07-24T05:03:47;11.80;;;7.95;;
12145;SDS011;6136;47.032;15.398;2023-07-24T05:06:15;9.27;;;7.40;;
12145;SDS011;6136;47.032;15.398;2023-07-24T05:08:44;8.27;;;6.78;;
12145;SDS011;6136;47.032;15.398;2023-07-24T05:11:13;12.75;;;8.30;;
12145;SDS011;6136;47.032;15.398;2023-07-24T05:13:41;12.82;;;7.78;;
12145;SDS011;6136;47.032;15.398;2023-07-24T05:16:09;9.13;;;6.88;;
12145;SDS011;6136;47.032;15.398;2023-07-24T05:18:37;8.55;;;6.93;;
12145;SDS011;6136;47.032;15.398;2023-07-24T05:21:06;11.88;;;7.63;;
12145;SDS011;6136;47.032;15.398;2023-07-24T05:23:34;11.38;;;6.80;;
12145;SDS011;6136;47.032;15.398;2023-07-24T05:26:04;8.77;;;6.22;;
12145;SDS011;6136;47.032;15.398;2023-07-24T05:28:32;9.35;;;7.13;;
12145;SDS011;6136;47.032;15.398;2023-07-24T05:31:00;10.15;;;7.55;;
12145;SDS011;6136;47.032;15.398;2023-07-24T05:33:29;10.55;;;8.75;;
12145;SDS011;6136;47.032;15.398;2023-07-24T05:35:58;13.20;;;7.85;;
12145;SDS011;6136;47.032;15.398;2023-07-24T05:38:27;9.77;;;7.65;;
12145;SDS011;6136;47.032;15.398;2023-07-24T05:40:55;11.13;;;7.72;;
12145;SDS011;6136;47.032;15.398;2023-07-24T05:43:25;10.27;;;7.10;;
12145;SDS011;6136;47.032;15.398;2023-07-24T05:45:54;10.50;;;7.07;;
12145;SDS011;6136;47.032;15.398;2023-07-24T05:48:23;9.10;;;7.05;;
12145;SDS011;6136;47.032;15.398;2023-07-24T05:50:52;11.48;;;7.78;;
12145;SDS011;6136;47.032;15.398;2023-07-24T05:53:20;10.48;;;6.60;;
12145;SDS011;6136;47.032;15.398;2023-07-24T05:55:56;9.80;;;7.45;;
12145;SDS011;6136;47.032;15.398;2023-07-24T05:58:27;11.27;;;7.80;;
12145;SDS011;6136;47.032;15.398;2023-07-24T06:00:55;10.70;;;7.10;;
12145;SDS011;6136;47.032;15.398;2023-07-24T06:03:23;10.55;;;7.82;;
12145;SDS011;6136;47.032;15.398;2023-07-24T06:05:52;11.38;;;7.53;;
12145;SDS011;6136;47.032;15.398;2023-07-24T06:08:21;9.68;;;6.90;;
12145;SDS011;6136;47.032;15.398;2023-07-24T06:10:50;11.45;;;7.55;;
12145;SDS011;6136;47.032;15.398;2023-07-24T06:13:18;8.45;;;6.97;;
12145;SDS011;6136;47.032;15.398;2023-07-24T06:15:48;8.98;;;7.35;;
12145;SDS011;6136;47.032;15.398;2023-07-24T06:18:17;13.90;;;8.25;;
12145;SDS011;6136;47.032;15.398;2023-07-24T06:20:46;15.07;;;7.55;;
12145;SDS011;6136;47.032;15.398;2023-07-24T06:23:16;14.10;;;8.68;;
12145;SDS011;6136;47.032;15.398;2023-07-24T06:25:44;9.35;;;7.78;;
12145;SDS011;6136;47.032;15.398;2023-07-24T06:28:12;11.90;;;6.85;;
12145;SDS011;6136;47.032;15.398;2023-07-24T06:30:41;9.60;;;6.80;;
12145;SDS011;6136;47.032;15.398;2023-07-24T06:33:10;12.75;;;7.35;;
12145;SDS011;6136;47.032;15.398;2023-07-24T06:35:38;9.05;;;6.80;;
12145;SDS011;6136;47.032;15.398;2023-07-24T06:38:06;9.80;;;6.60;;
12145;SDS011;6136;47.032;15.398;2023-07-24T06:40:35;10.00;;;6.80;;
12145;SDS011;6136;47.032;15.398;2023-07-24T06:43:04;9.63;;;7.18;;
12145;SDS011;6136;47.032;15.398;2023-07-24T06:45:32;8.90;;;7.10;;
12145;SDS011;6136;47.032;15.398;2023-07-24T06:48:00;11.80;;;7.50;;
12145;SDS011;6136;47.032;15.398;2023-07-24T06:50:30;11.13;;;6.65;;
12145;SDS011;6136;47.032;15.398;2023-07-24T06:52:58;9.32;;;6.85;;
12145;SDS011;6136;47.032;15.398;2023-07-24T06:55:26;9.30;;;7.03;;
12145;SDS011;6136;47.032;15.398;2023-07-24T06:57:54;11.13;;;6.75;;
12145;SDS011;6136;47.032;15.398;2023-07-24T07:00:22;12.45;;;6.72;;
12145;SDS011;6136;47.032;15.398;2023-07-24T07:02:50;9.20;;;6.30;;
12145;SDS011;6136;47.032;15.398;2023-07-24T07:05:18;8.93;;;6.90;;
12145;SDS011;6136;47.032;15.398;2023-07-24T07:07:48;11.10;;;7.55;;
12145;SDS011;6136;47.032;15.398;2023-07-24T07:10:16;13.13;;;6.93;;
12145;SDS011;6136;47.032;15.398;2023-07-24T07:12:44;10.25;;;6.82;;
12145;SDS011;6136;47.032;15.398;2023-07-24T07:15:13;10.68;;;6.50;;
12145;SDS011;6136;47.032;15.398;2023-07-24T07:17:41;11.73;;;6.95;;
12145;SDS011;6136;47.032;15.398;2023-07-24T07:20:09;7.97;;;6.43;;
12145;SDS011;6136;47.032;15.398;2023-07-24T07:22:38;10.30;;;7.10;;
12145;SDS011;6136;47.032;15.398;2023-07-24T07:25:07;8.48;;;6.55;;
12145;SDS011;6136;47.032;15.398;2023-07-24T07:27:36;8.50;;;6.55;;
12145;SDS011;6136;47.032;15.398;2023-07-24T07:30:04;8.07;;;6.30;;
12145;SDS011;6136;47.032;15.398;2023-07-24T07:32:33;9.18;;;6.97;;
12145;SDS011;6136;47.032;15.398;2023-07-24T07:35:01;9.77;;;7.10;;
12145;SDS011;6136;47.032;15.398;2023-07-24T07:37:30;13.73;;;7.30;;
12145;SDS011;6136;47.032;15.398;2023-07-24T07:39:58;9.50;;;6.50;;
12145;SDS011;6136;47.032;15.398;2023-07-24T07:42:27;14.18;;;6.85;;
12145;SDS011;6136;47.032;15.398;2023-07-24T07:44:55;8.73;;;7.18;;
12145;SDS011;6136;47.032;15.398;2023-07-24T07:47:23;8.25;;;6.43;;
12145;SDS011;6136;47.032;15.398;2023-07-24T07:49:51;9.05;;;6.55;;
12145;SDS011;6136;47.032;15.398;2023-07-24T07:52:20;8.30;;;6.75;;
12145;SDS011;6136;47.032;15.398;2023-07-24T07:54:49;12.65;;;7.05;;
12145;SDS011;6136;47.032;15.398;2023-07-24T07:57:17;9.48;;;7.00;;
12145;SDS011;6136;47.032;15.398;2023-07-24T07:59:46;11.32;;;7.07;;
12145;SDS011;6136;47.032;15.398;2023-07-24T08:02:14;12.55;;;7.55;;
12145;SDS011;6136;47.032;15.398;2023-07-24T08:04:42;9.88;;;6.45;;
12145;SDS011;6136;47.032;15.398;2023-07-24T08:07:11;11.68;;;6.93;;
12145;SDS011;6136;47.032;15.398;2023-07-24T08:09:39;10.27;;;6.63;;
12145;SDS011;6136;47.032;15.398;2023-07-24T08:12:07;11.43;;;6.95;;
12145;SDS011;6136;47.032;15.398;2023-07-24T08:14:36;8.23;;;6.93;;
12145;SDS011;6136;47.032;15.398;2023-07-24T08:17:05;8.90;;;6.95;;
12145;SDS011;6136;47.032;15.398;2023-07-24T08:19:33;7.47;;;6.20;;
12145;SDS011;6136;47.032;15.398;2023-07-24T08:22:02;7.82;;;6.35;;
12145;SDS011;6136;47.032;15.398;2023-07-24T08:24:33;9.20;;;6.75;;
12145;SDS011;6136;47.032;15.398;2023-07-24T08:27:01;8.57;;;6.90;;
12145;SDS011;6136;47.032;15.398;2023-07-24T08:29:30;11.55;;;6.78;;
12145;SDS011;6136;47.032;15.398;2023-07-24T08:31:58;8.80;;;6.90;;
12145;SDS011;6136;47.032;15.398;2023-07-24T08:34:28;11.57;;;7.07;;
12145;SDS011;6136;47.032;15.398;2023-07-24T08:36:56;8.63;;;6.70;;
12145;SDS011;6136;47.032;15.398;2023-07-24T08:39:24;7.95;;;5.88;;
12145;SDS011;6136;47.032;15.398;2023-07-24T08:41:52;10.45;;;7.32;;
12145;SDS011;6136;47.032;15.398;2023-07-24T08:44:20;8.82;;;7.03;;
12145;SDS011;6136;47.032;15.398;2023-07-24T08:46:51;8.40;;;6.72;;
12145;SDS011;6136;47.032;15.398;2023-07-24T08:49:19;8.27;;;6.47;;
12145;SDS011;6136;47.032;15.398;2023-07-24T08:51:50;11.77;;;6.60;;
12145;SDS011;6136;47.032;15.398;2023-07-24T08:54:18;11.57;;;6.90;;
12145;SDS011;6136;47.032;15.398;2023-07-24T08:56:47;10.68;;;7.20;;
12145;SDS011;6136;47.032;15.398;2023-07-24T08:59:16;10.38;;;7.10;;
12145;SDS011;6136;47.032;15.398;2023-07-24T09:01:45;13.02;;;8.55;;
12145;SDS011;6136;47.032;15.398;2023-07-24T09:04:13;11.32;;;6.97;;
12145;SDS011;6136;47.032;15.398;2023-07-24T09:06:41;11.25;;;7.28;;
12145;SDS011;6136;47.032;15.398;2023-07-24T09:09:14;11.73;;;7.20;;
12145;SDS011;6136;47.032;15.398;2023-07-24T09:11:46;9.45;;;6.93;;
12145;SDS011;6136;47.032;15.398;2023-07-24T09:14:20;9.02;;;7.00;;
12145;SDS011;6136;47.032;15.398;2023-07-24T09:16:49;8.27;;;6.65;;
12145;SDS011;6136;47.032;15.398;2023-07-24T09:19:19;9.68;;;6.57;;
12145;SDS011;6136;47.032;15.398;2023-07-24T09:21:50;8.07;;;6.93;;
12145;SDS011;6136;47.032;15.398;2023-07-24T09:24:20;9.27;;;7.38;;
12145;SDS011;6136;47.032;15.398;2023-07-24T09:26:49;8.93;;;7.28;;
12145;SDS011;6136;47.032;15.398;2023-07-24T09:29:29;9.75;;;7.43;;
12145;SDS011;6136;47.032;15.398;2023-07-24T09:31:58;8.88;;;6.82;;
12145;SDS011;6136;47.032;15.398;2023-07-24T09:34:26;9.00;;;7.03;;
12145;SDS011;6136;47.032;15.398;2023-07-24T09:36:55;9.48;;;6.88;;
12145;SDS011;6136;47.032;15.398;2023-07-24T09:39:25;9.75;;;7.55;;
12145;SDS011;6136;47.032;15.398;2023-07-24T09:42:02;8.68;;;7.07;;
12145;SDS011;6136;47.032;15.398;2023-07-24T09:44:31;11.27;;;7.30;;
12145;SDS011;6136;47.032;15.398;2023-07-24T09:46:59;9.75;;;7.00;;
12145;SDS011;6136;47.032;15.398;2023-07-24T09:49:48;8.45;;;6.43;;
12145;SDS011;6136;47.032;15.398;2023-07-24T09:52:18;9.90;;;7.35;;
12145;SDS011;6136;47.032;15.398;2023-07-24T09:54:52;8.18;;;6.57;;
12145;SDS011;6136;47.032;15.398;2023-07-24T09:57:24;8.10;;;6.25;;
12145;SDS011;6136;47.032;15.398;2023-07-24T09:59:54;12.15;;;7.20;;
12145;SDS011;6136;47.032;15.398;2023-07-24T10:02:24;8.65;;;7.20;;
12145;SDS011;6136;47.032;15.398;2023-07-24T10:04:53;7.95;;;6.82;;
12145;SDS011;6136;47.032;15.398;2023-07-24T10:07:22;11.00;;;8.13;;
12145;SDS011;6136;47.032;15.398;2023-07-24T10:09:52;10.10;;;7.72;;
12145;SDS011;6136;47.032;15.398;2023-07-24T10:12:21;8.15;;;6.88;;
12145;SDS011;6136;47.032;15.398;2023-07-24T10:14:50;10.05;;;7.10;;
12145;SDS011;6136;47.032;15.398;2023-07-24T10:17:33;9.75;;;8.07;;
12145;SDS011;6136;47.032;15.398;2023-07-24T10:20:03;8.23;;;6.95;;
12145;SDS011;6136;47.032;15.398;2023-07-24T10:22:32;13.05;;;7.13;;
12145;SDS011;6136;47.032;15.398;2023-07-24T10:25:01;11.65;;;7.40;;
12145;SDS011;6136;47.032;15.398;2023-07-24T10:27:30;9.50;;;7.07;;
12145;SDS011;6136;47.032;15.398;2023-07-24T10:29:58;11.63;;;7.40;;
12145;SDS011;6136;47.032;15.398;2023-07-24T10:32:30;8.55;;;7.38;;
12145;SDS011;6136;47.032;15.398;2023-07-24T10:34:59;10.88;;;7.47;;
12145;SDS011;6136;47.032;15.398;2023-07-24T10:37:34;12.90;;;7.97;;
12145;SDS011;6136;47.032;15.398;2023-07-24T10:40:04;10.23;;;8.63;;
12145;SDS011;6136;47.032;15.398;2023-07-24T10:42:33;10.85;;;7.40;;
12145;SDS011;6136;47.032;15.398;2023-07-24T10:45:05;9.27;;;7.72;;
12145;SDS011;6136;47.032;15.398;2023-07-24T10:47:34;9.90;;;7.57;;
12145;SDS011;6136;47.032;15.398;2023-07-24T10:50:03;10.98;;;8.25;;
12145;SDS011;6136;47.032;15.398;2023-07-24T10:52:32;11.27;;;8.07;;
12145;SDS011;6136;47.032;15.398;2023-07-24T10:55:00;10.68;;;8.75;;
12145;SDS011;6136;47.032;15.398;2023-07-24T10:57:30;9.57;;;8.00;;
12145;SDS011;6136;47.032;15.398;2023-07-24T10:59:59;12.00;;;8.93;;
12145;SDS011;6136;47.032;15.398;2023-07-24T11:02:27;10.00;;;8.02;;
12145;SDS011;6136;47.032;15.398;2023-07-24T11:04:58;11.93;;;9.38;;
12145;SDS011;6136;47.032;15.398;2023-07-24T11:07:31;11.43;;;9.00;;
12145;SDS011;6136;47.032;15.398;2023-07-24T11:10:00;9.85;;;8.30;;
12145;SDS011;6136;47.032;15.398;2023-07-24T11:12:28;10.00;;;8.93;;
12145;SDS011;6136;47.032;15.398;2023-07-24T11:14:59;11.57;;;9.27;;
12145;SDS011;6136;47.032;15.398;2023-07-24T11:17:34;11.80;;;8.70;;
12145;SDS011;6136;47.032;15.398;2023-07-24T11:20:07;12.32;;;10.18;;
12145;SDS011;6136;47.032;15.398;2023-07-24T11:22:41;11.20;;;8.80;;
12145;SDS011;6136;47.032;15.398;2023-07-24T11:25:10;12.27;;;9.00;;
12145;SDS011;6136;47.032;15.398;2023-07-24T11:27:39;12.05;;;8.65;;
12145;SDS011;6136;47.032;15.398;2023-07-24T11:30:11;17.42;;;9.52;;
12145;SDS011;6136;47.032;15.398;2023-07-24T11:32:40;14.30;;;9.80;;
12145;SDS011;6136;47.032;15.398;2023-07-24T11:35:09;12.70;;;9.07;;
12145;SDS011;6136;47.032;15.398;2023-07-24T11:37:38;12.23;;;9.35;;
12145;SDS011;6136;47.032;15.398;2023-07-24T11:40:06;11.13;;;8.63;;
12145;SDS011;6136;47.032;15.398;2023-07-24T11:42:37;12.48;;;9.50;;
12145;SDS011;6136;47.032;15.398;2023-07-24T11:45:07;11.13;;;8.88;;
12145;SDS011;6136;47.032;15.398;2023-07-24T11:47:45;15.07;;;8.98;;
12145;SDS011;6136;47.032;15.398;2023-07-24T11:50:15;12.93;;;8.73;;
12145;SDS011;6136;47.032;15.398;2023-07-24T11:52:47;12.70;;;8.98;;
12145;SDS011;6136;47.032;15.398;2023-07-24T11:55:16;13.23;;;8.85;;
12145;SDS011;6136;47.032;15.398;2023-07-24T11:57:55;11.55;;;9.02;;
12145;SDS011;6136;47.032;15.398;2023-07-24T12:00:24;12.88;;;8.80;;
12145;SDS011;6136;47.032;15.398;2023-07-24T12:02:58;13.75;;;9.73;;
12145;SDS011;6136;47.032;15.398;2023-07-24T12:05:27;13.48;;;9.48;;
12145;SDS011;6136;47.032;15.398;2023-07-24T12:07:55;11.63;;;8.48;;
12145;SDS011;6136;47.032;15.398;2023-07-24T12:10:27;13.43;;;9.32;;
12145;SDS011;6136;47.032;15.398;2023-07-24T12:12:57;12.30;;;9.43;;
12145;SDS011;6136;47.032;15.398;2023-07-24T12:15:26;12.35;;;9.18;;
12145;SDS011;6136;47.032;15.398;2023-07-24T12:17:56;14.75;;;8.98;;
12145;SDS011;6136;47.032;15.398;2023-07-24T12:20:24;11.60;;;8.98;;
12145;SDS011;6136;47.032;15.398;2023-07-24T12:22:53;12.10;;;9.13;;
12145;SDS011;6136;47.032;15.398;2023-07-24T12:25:21;11.50;;;8.70;;
12145;SDS011;6136;47.032;15.398;2023-07-24T12:27:49;12.10;;;9.27;;
12145;SDS011;6136;47.032;15.398;2023-07-24T12:30:17;11.13;;;8.15;;
12145;SDS011;6136;47.032;15.398;2023-07-24T12:32:46;12.02;;;8.15;;
12145;SDS011;6136;47.032;15.398;2023-07-24T12:35:16;12.50;;;9.75;;
12145;SDS011;6136;47.032;15.398;2023-07-24T12:37:44;12.30;;;9.32;;
12145;SDS011;6136;47.032;15.398;2023-07-24T12:40:13;29.55;;;9.38;;
12145;SDS011;6136;47.032;15.398;2023-07-24T12:42:41;12.02;;;8.98;;
12145;SDS011;6136;47.032;15.398;2023-07-24T12:45:09;15.40;;;8.88;;
12145;SDS011;6136;47.032;15.398;2023-07-24T12:47:37;11.05;;;8.45;;
12145;SDS011;6136;47.032;15.398;2023-07-24T12:50:05;11.85;;;8.07;;
12145;SDS011;6136;47.032;15.398;2023-07-24T12:52:35;9.85;;;8.32;;
12145;SDS011;6136;47.032;15.398;2023-07-24T12:55:04;14.77;;;9.55;;
12145;SDS011;6136;47.032;15.398;2023-07-24T12:57:32;16.45;;;8.88;;
12145;SDS011;6136;47.032;15.398;2023-07-24T13:00:00;10.13;;;7.70;;
12145;SDS011;6136;47.032;15.398;2023-07-24T13:02:29;11.98;;;7.88;;
12145;SDS011;6136;47.032;15.398;2023-07-24T13:04:58;11.13;;;8.38;;
12145;SDS011;6136;47.032;15.398;2023-07-24T13:07:26;11.60;;;8.07;;
12145;SDS011;6136;47.032;15.398;2023-07-24T13:09:57;13.52;;;8.70;;
12145;SDS011;6136;47.032;15.398;2023-07-24T13:12:25;13.02;;;8.85;;
12145;SDS011;6136;47.032;15.398;2023-07-24T13:14:53;12.40;;;8.88;;
12145;SDS011;6136;47.032;15.398;2023-07-24T13:17:21;12.10;;;8.52;;
12145;SDS011;6136;47.032;15.398;2023-07-24T13:19:49;12.02;;;8.13;;
12145;SDS011;6136;47.032;15.398;2023-07-24T13:22:18;11.07;;;8.02;;
12145;SDS011;6136;47.032;15.398;2023-07-24T13:24:46;11.82;;;8.50;;
12145;SDS011;6136;47.032;15.398;2023-07-24T13:27:15;11.02;;;8.25;;
12145;SDS011;6136;47.032;15.398;2023-07-24T13:29:43;13.02;;;9.23;;
12145;SDS011;6136;47.032;15.398;2023-07-24T13:32:11;12.15;;;8.27;;
12145;SDS011;6136;47.032;15.398;2023-07-24T13:34:40;9.07;;;7.25;;
12145;SDS011;6136;47.032;15.398;2023-07-24T13:37:08;11.73;;;8.38;;
12145;SDS011;6136;47.032;15.398;2023-07-24T13:39:37;13.27;;;9.13;;
12145;SDS011;6136;47.032;15.398;2023-07-24T13:42:06;13.13;;;8.88;;
12145;SDS011;6136;47.032;15.398;2023-07-24T13:44:36;10.85;;;8.80;;
12145;SDS011;6136;47.032;15.398;2023-07-24T13:47:04;15.25;;;8.65;;
12145;SDS011;6136;47.032;15.398;2023-07-24T13:49:33;14.70;;;9.32;;
12145;SDS011;6136;47.032;15.398;2023-07-24T13:52:01;19.00;;;9.40;;
12145;SDS011;6136;47.032;15.398;2023-07-24T13:54:29;12.20;;;8.25;;
12145;SDS011;6136;47.032;15.398;2023-07-24T13:56:57;11.52;;;8.50;;
12145;SDS011;6136;47.032;15.398;2023-07-24T13:59:26;15.10;;;8.98;;
12145;SDS011;6136;47.032;15.398;2023-07-24T14:01:57;12.10;;;8.32;;
12145;SDS011;6136;47.032;15.398;2023-07-24T14:04:26;14.55;;;8.70;;
12145;SDS011;6136;47.032;15.398;2023-07-24T14:06:54;11.35;;;8.25;;
12145;SDS011;6136;47.032;15.398;2023-07-24T14:09:22;14.07;;;8.45;;
12145;SDS011;6136;47.032;15.398;2023-07-24T14:11:51;13.38;;;8.25;;
12145;SDS011;6136;47.032;15.398;2023-07-24T14:14:19;14.23;;;8.02;;
12145;SDS011;6136;47.032;15.398;2023-07-24T14:16:47;13.18;;;8.35;;
12145;SDS011;6136;47.032;15.398;2023-07-24T14:19:17;12.68;;;8.02;;
12145;SDS011;6136;47.032;15.398;2023-07-24T14:21:45;10.50;;;8.13;;
12145;SDS011;6136;47.032;15.398;2023-07-24T14:24:14;10.95;;;7.97;;
12145;SDS011;6136;47.032;15.398;2023-07-24T14:26:44;13.13;;;8.35;;
12145;SDS011;6136;47.032;15.398;2023-07-24T14:29:13;11.90;;;8.40;;
12145;SDS011;6136;47.032;15.398;2023-07-24T14:31:44;9.90;;;7.97;;
12145;SDS011;6136;47.032;15.398;2023-07-24T14:34:12;12.40;;;8.35;;
12145;SDS011;6136;47.032;15.398;2023-07-24T14:36:42;10.77;;;7.55;;
12145;SDS011;6136;47.032;15.398;2023-07-24T14:39:11;8.65;;;6.50;;
12145;SDS011;6136;47.032;15.398;2023-07-24T14:41:39;11.68;;;7.25;;
12145;SDS011;6136;47.032;15.398;2023-07-24T14:44:07;10.20;;;6.55;;
12145;SDS011;6136;47.032;15.398;2023-07-24T14:46:37;9.98;;;7.22;;
12145;SDS011;6136;47.032;15.398;2023-07-24T14:49:06;11.00;;;8.00;;
12145;SDS011;6136;47.032;15.398;2023-07-24T14:51:35;12.07;;;8.27;;